Time;durP1;ratioP1;P1;durP2;ratioP2;P2;SDS_P1;SDS_P2;PMS_P1;PMS_P2;Temp;Humidity;BMP_temperature;BMP_pressure;BME280_temperature;BME280_humidity;BME280_pressure;Samples;Min_cycle;Max_cycle;Signal;HPM_P1;HPM_P2
2021/07/08 00:01:21;;;;;;;3.55;1.35;;;19.20;99.90;;;;;;4841454;29;20022;-78
2021/07/08 00:03:47;;;;;;;3.55;1.38;;;19.20;99.90;;;;;;4843703;29;20488;-78
2021/07/08 00:06:13;;;;;;;3.92;1.40;;;19.10;99.90;;;;;;4842707;29;20173;-77
2021/07/08 00:08:39;;;;;;;2.97;1.45;;;19.40;99.90;;;;;;4843245;29;20114;-77
2021/07/08 00:11:04;;;;;;;6.53;1.70;;;19.50;99.90;;;;;;4842049;29;20393;-77
2021/07/08 00:13:30;;;;;;;3.03;1.70;;;19.50;99.90;;;;;;4842802;29;20098;-78
2021/07/08 00:15:57;;;;;;;5.28;1.50;;;19.50;99.90;;;;;;4842440;29;20028;-78
2021/07/08 00:18:25;;;;;;;2.90;1.40;;;19.30;99.90;;;;;;4843057;29;20419;-78
2021/07/08 00:20:52;;;;;;;2.97;1.30;;;19.20;99.90;;;;;;4843093;29;20018;-77
2021/07/08 00:23:20;;;;;;;5.22;1.35;;;19.10;99.90;;;;;;4842321;29;20049;-78
2021/07/08 00:25:49;;;;;;;2.90;1.50;;;18.90;99.90;;;;;;4842623;29;20034;-78
2021/07/08 00:28:15;;;;;;;2.15;1.30;;;18.90;99.90;;;;;;4842428;29;20034;-77
2021/07/08 00:30:42;;;;;;;4.05;1.23;;;19.00;99.90;;;;;;4841838;29;20026;-78
2021/07/08 00:33:09;;;;;;;3.92;1.17;;;19.10;99.90;;;;;;4841530;29;20061;-78
2021/07/08 00:35:36;;;;;;;5.75;1.27;;;19.30;99.90;;;;;;4842222;29;20041;-78
2021/07/08 00:38:03;;;;;;;2.95;1.35;;;19.20;99.90;;;;;;4842684;29;20030;-77
2021/07/08 00:40:30;;;;;;;3.17;1.33;;;19.10;99.90;;;;;;4842347;29;20392;-77
2021/07/08 00:42:56;;;;;;;5.20;1.65;;;19.20;99.90;;;;;;4841790;29;20042;-78
2021/07/08 00:45:23;;;;;;;4.22;1.45;;;19.10;99.90;;;;;;4842619;29;20037;-78
2021/07/08 00:47:50;;;;;;;3.88;1.35;;;18.90;99.90;;;;;;4841950;29;20042;-77
2021/07/08 00:50:17;;;;;;;2.60;1.27;;;18.80;99.90;;;;;;4842480;29;20042;-78
2021/07/08 00:52:43;;;;;;;5.72;2.03;;;18.90;99.90;;;;;;4841449;29;20033;-77
2021/07/08 00:55:10;;;;;;;3.88;1.50;;;18.80;99.90;;;;;;4842533;29;20101;-77
2021/07/08 00:57:40;;;;;;;2.33;1.20;;;18.70;99.90;;;;;;4842364;29;20109;-77
2021/07/08 01:00:07;;;;;;;3.03;1.35;;;18.70;99.90;;;;;;4841960;29;20173;-77
2021/07/08 01:02:34;;;;;;;4.75;1.67;;;18.90;99.90;;;;;;4838288;29;20042;-77
2021/07/08 01:05:00;;;;;;;11.18;1.58;;;19.20;99.90;;;;;;4842237;29;20045;-77
2021/07/08 01:07:26;;;;;;;2.63;1.55;;;19.00;99.90;;;;;;4841934;29;20408;-78
2021/07/08 01:09:52;;;;;;;3.42;1.55;;;18.90;99.90;;;;;;4841210;29;20102;-78
2021/07/08 01:12:24;;;;;;;3.15;1.50;;;18.80;99.90;;;;;;4840264;29;20437;-78
2021/07/08 01:14:49;;;;;;;3.55;1.85;;;18.80;99.90;;;;;;4841587;29;20025;-78
2021/07/08 01:17:15;;;;;;;3.00;1.42;;;18.80;99.90;;;;;;4841628;29;20085;-77
2021/07/08 01:19:42;;;;;;;4.47;1.23;;;18.90;99.90;;;;;;4841820;29;20044;-78
2021/07/08 01:22:08;;;;;;;6.68;1.77;;;19.00;99.90;;;;;;4841141;29;20549;-77
2021/07/08 01:24:37;;;;;;;3.20;1.80;;;19.00;99.90;;;;;;4839795;29;20298;-77
2021/07/08 01:27:04;;;;;;;2.78;1.15;;;18.80;99.90;;;;;;4841176;29;20052;-78
2021/07/08 01:29:30;;;;;;;4.63;2.40;;;18.80;99.90;;;;;;4841483;29;20026;-78
2021/07/08 01:31:58;;;;;;;2.88;1.50;;;18.70;99.90;;;;;;4841319;29;20061;-79
2021/07/08 01:34:23;;;;;;;4.47;1.40;;;18.70;99.90;;;;;;4838973;29;20484;-78
2021/07/08 01:36:49;;;;;;;2.80;1.40;;;18.70;99.90;;;;;;4840186;29;20066;-78
2021/07/08 01:39:17;;;;;;;2.78;1.27;;;18.60;99.90;;;;;;4839556;29;20105;-77
2021/07/08 01:41:43;;;;;;;5.38;1.70;;;18.30;99.90;;;;;;4841720;29;20461;-77
2021/07/08 01:44:08;;;;;;;3.17;1.35;;;18.20;99.90;;;;;;4839303;29;20028;-78
2021/07/08 01:46:34;;;;;;;4.38;1.20;;;18.30;99.90;;;;;;4840823;29;20030;-78
2021/07/08 01:49:00;;;;;;;3.95;1.48;;;18.20;99.90;;;;;;4841269;29;20037;-77
2021/07/08 01:51:32;;;;;;;5.22;1.95;;;18.30;99.90;;;;;;4840406;29;20038;-77
2021/07/08 01:53:59;;;;;;;3.75;1.25;;;18.50;99.90;;;;;;4840911;29;20492;-77
2021/07/08 01:56:26;;;;;;;3.47;1.65;;;18.60;99.90;;;;;;4840716;29;20026;-78
2021/07/08 01:58:53;;;;;;;6.65;1.80;;;18.70;99.90;;;;;;4841087;29;20492;-78
2021/07/08 02:01:20;;;;;;;5.72;2.33;;;18.70;99.90;;;;;;4839514;29;20030;-78
2021/07/08 02:03:46;;;;;;;5.15;1.63;;;18.30;99.90;;;;;;4841127;29;20154;-78
2021/07/08 02:06:12;;;;;;;4.57;1.33;;;18.20;99.90;;;;;;4840787;29;20098;-78
2021/07/08 02:08:38;;;;;;;3.17;1.35;;;18.20;99.90;;;;;;4841200;29;20170;-78
2021/07/08 02:11:08;;;;;;;3.20;1.27;;;18.20;99.90;;;;;;4840691;29;20034;-77
2021/07/08 02:13:35;;;;;;;4.20;1.40;;;18.30;99.90;;;;;;4841297;29;20133;-77
2021/07/08 02:16:01;;;;;;;2.85;1.40;;;18.30;99.90;;;;;;4840450;29;20097;-78
2021/07/08 02:18:27;;;;;;;3.08;1.60;;;18.30;99.90;;;;;;4840673;29;20130;-78
2021/07/08 02:20:53;;;;;;;3.85;1.48;;;18.30;99.90;;;;;;4840899;29;20606;-78
2021/07/08 02:23:19;;;;;;;2.88;1.63;;;18.20;99.90;;;;;;4839642;29;20049;-78
2021/07/08 02:25:44;;;;;;;7.00;2.03;;;18.20;99.90;;;;;;4839819;29;20034;-77
2021/07/08 02:28:10;;;;;;;2.50;1.30;;;18.00;99.90;;;;;;4837155;29;20485;-77
2021/07/08 02:30:36;;;;;;;5.95;1.50;;;18.00;99.90;;;;;;4838770;29;20072;-78
2021/07/08 02:33:04;;;;;;;3.30;1.67;;;18.10;99.90;;;;;;4839680;29;20060;-77
2021/07/08 02:35:30;;;;;;;3.60;1.70;;;18.10;99.90;;;;;;4840038;29;20071;-77
2021/07/08 02:37:56;;;;;;;3.42;1.50;;;18.20;99.90;;;;;;4840867;29;20038;-77
2021/07/08 02:40:26;;;;;;;5.63;1.70;;;18.10;99.90;;;;;;4840709;29;20577;-77
2021/07/08 02:42:52;;;;;;;4.50;1.60;;;18.10;99.90;;;;;;4840641;29;20586;-77
2021/07/08 02:45:23;;;;;;;2.80;1.40;;;18.30;99.90;;;;;;4840658;29;20065;-77
2021/07/08 02:47:50;;;;;;;2.80;1.30;;;18.40;99.90;;;;;;4841007;29;20026;-78
2021/07/08 02:50:17;;;;;;;3.75;1.33;;;18.60;99.90;;;;;;4839585;29;20037;-77
2021/07/08 02:52:44;;;;;;;5.75;1.70;;;18.60;99.90;;;;;;4840352;29;20030;-77
2021/07/08 02:55:10;;;;;;;4.85;1.48;;;18.30;99.90;;;;;;4840524;29;20033;-77
2021/07/08 02:57:37;;;;;;;2.63;1.35;;;18.20;99.90;;;;;;4840888;29;20485;-77
2021/07/08 03:00:05;;;;;;;7.65;1.95;;;17.80;99.90;;;;;;4839953;29;20038;-78
2021/07/08 03:02:31;;;;;;;6.93;1.70;;;17.60;99.90;;;;;;4838120;29;20112;-78
2021/07/08 03:04:56;;;;;;;9.13;2.20;;;17.50;99.90;;;;;;4822073;29;20489;-79
2021/07/08 03:07:22;;;;;;;5.13;1.70;;;17.60;99.90;;;;;;4833260;29;20044;-78
2021/07/08 03:09:48;;;;;;;3.35;1.48;;;17.90;99.90;;;;;;4833104;29;20044;-78
2021/07/08 03:12:13;;;;;;;2.33;1.30;;;18.20;99.90;;;;;;4833061;29;20066;-78
2021/07/08 03:14:39;;;;;;;4.38;1.60;;;18.10;99.90;;;;;;4833040;29;20493;-78
2021/07/08 03:17:05;;;;;;;3.75;1.90;;;17.80;99.90;;;;;;4832884;29;20030;-78
2021/07/08 03:19:30;;;;;;;4.38;1.63;;;17.60;99.90;;;;;;4832698;29;20468;-77
2021/07/08 03:21:56;;;;;;;9.95;2.10;;;17.60;99.90;;;;;;4833032;29;20037;-77
2021/07/08 03:24:22;;;;;;;7.43;1.70;;;17.70;99.90;;;;;;4832369;29;20535;-78
2021/07/08 03:26:47;;;;;;;2.78;1.27;;;17.70;99.90;;;;;;4832587;29;20034;-79
2021/07/08 03:29:13;;;;;;;3.53;1.75;;;17.70;99.90;;;;;;4832315;29;20037;-78
2021/07/08 03:31:39;;;;;;;7.40;1.75;;;17.70;99.90;;;;;;4832785;29;20054;-78
2021/07/08 03:34:05;;;;;;;6.35;1.50;;;17.80;99.90;;;;;;4833153;29;20361;-78
2021/07/08 03:36:30;;;;;;;2.72;1.33;;;17.90;99.90;;;;;;4835094;29;20373;-77
2021/07/08 03:38:56;;;;;;;13.60;1.77;;;18.10;99.90;;;;;;4836148;29;20546;-78
2021/07/08 03:41:22;;;;;;;3.17;1.65;;;18.20;99.90;;;;;;4834646;29;20513;-78
2021/07/08 03:43:47;;;;;;;3.63;1.80;;;18.10;99.90;;;;;;4836083;29;20038;-78
2021/07/08 03:46:13;;;;;;;4.95;1.52;;;18.30;99.90;;;;;;4836042;29;20125;-77
2021/07/08 03:48:39;;;;;;;4.38;1.80;;;18.50;99.90;;;;;;4836016;29;20034;-78
2021/07/08 03:51:04;;;;;;;6.35;1.77;;;18.40;99.90;;;;;;4835677;29;20489;-77
2021/07/08 03:53:30;;;;;;;3.90;1.80;;;18.30;99.90;;;;;;4835813;29;20044;-78
2021/07/08 03:55:56;;;;;;;2.97;1.50;;;18.30;99.90;;;;;;4835901;29;20029;-78
2021/07/08 03:58:21;;;;;;;2.90;1.52;;;18.40;99.90;;;;;;4835992;29;20511;-78
2021/07/08 04:00:47;;;;;;;6.60;1.52;;;18.30;99.90;;;;;;4835009;29;20030;-78
2021/07/08 04:03:17;;;;;;;3.42;1.55;;;18.10;99.90;;;;;;4835803;29;20041;-78
2021/07/08 04:05:45;;;;;;;2.90;1.77;;;17.90;99.90;;;;;;4835579;29;20038;-78
2021/07/08 04:08:11;;;;;;;7.18;1.95;;;18.00;99.90;;;;;;4836077;29;20030;-78
2021/07/08 04:10:40;;;;;;;3.22;1.50;;;18.00;99.90;;;;;;4835328;29;20030;-78
2021/07/08 04:13:20;;;;;;;3.63;1.70;;;18.10;99.90;;;;;;4835953;29;20034;-78
2021/07/08 04:15:48;;;;;;;2.28;1.20;;;18.10;99.90;;;;;;4835059;29;20509;-78
2021/07/08 04:18:15;;;;;;;7.18;2.10;;;18.00;99.90;;;;;;4836231;29;20038;-78
2021/07/08 04:20:42;;;;;;;4.75;1.80;;;18.00;99.90;;;;;;4835341;29;20022;-78
2021/07/08 04:23:11;;;;;;;4.18;1.60;;;18.10;99.90;;;;;;4834800;29;20044;-78
2021/07/08 04:25:38;;;;;;;3.50;1.98;;;18.10;99.90;;;;;;4835323;29;20033;-78
2021/07/08 04:28:04;;;;;;;2.88;1.63;;;18.10;99.90;;;;;;4831707;29;20034;-78
2021/07/08 04:30:32;;;;;;;4.75;1.60;;;18.10;99.90;;;;;;4825388;29;20882;-78
2021/07/08 04:32:58;;;;;;;4.32;1.63;;;18.20;99.90;;;;;;4834763;29;20125;-78
2021/07/08 04:35:33;;;;;;;3.67;1.65;;;18.10;99.90;;;;;;4835356;29;20893;-79
2021/07/08 04:37:59;;;;;;;6.15;1.75;;;17.90;99.90;;;;;;4835142;29;20362;-78
2021/07/08 04:40:26;;;;;;;5.75;1.98;;;17.90;99.90;;;;;;4834981;29;20030;-79
2021/07/08 04:43:01;;;;;;;3.75;1.88;;;18.10;99.90;;;;;;4835107;29;20041;-78
2021/07/08 04:45:28;;;;;;;4.22;1.63;;;18.10;99.90;;;;;;4834888;29;20033;-78
2021/07/08 04:47:54;;;;;;;6.72;1.80;;;18.20;99.90;;;;;;4834365;29;20086;-78
2021/07/08 04:50:22;;;;;;;3.45;1.73;;;18.20;99.90;;;;;;4834553;29;20038;-78
2021/07/08 04:52:49;;;;;;;6.68;1.70;;;18.10;99.90;;;;;;4834612;29;20022;-78
2021/07/08 04:55:16;;;;;;;3.53;1.60;;;18.10;99.90;;;;;;4833851;29;20038;-78
2021/07/08 04:57:42;;;;;;;3.13;1.55;;;18.00;99.90;;;;;;4834539;29;20029;-79
2021/07/08 05:00:13;;;;;;;7.10;2.17;;;17.90;99.90;;;;;;4834553;29;20034;-79
2021/07/08 05:02:40;;;;;;;3.90;1.75;;;18.00;99.90;;;;;;4834717;29;20066;-78
2021/07/08 05:05:07;;;;;;;5.85;1.85;;;18.00;99.90;;;;;;4835044;29;20393;-77
2021/07/08 05:07:34;;;;;;;6.28;2.08;;;18.10;99.90;;;;;;4834489;29;20091;-78
2021/07/08 05:10:00;;;;;;;4.35;1.58;;;18.20;99.90;;;;;;4834559;29;20036;-79
2021/07/08 05:12:26;;;;;;;7.88;1.95;;;18.30;99.90;;;;;;4834559;29;20033;-79
2021/07/08 05:14:51;;;;;;;5.05;1.73;;;18.40;99.90;;;;;;4834551;29;20048;-78
2021/07/08 05:17:19;;;;;;;3.42;1.83;;;18.40;99.90;;;;;;4833907;29;20094;-78
2021/07/08 05:19:44;;;;;;;4.50;1.70;;;18.60;99.90;;;;;;4834167;29;20029;-78
2021/07/08 05:22:11;;;;;;;3.70;1.42;;;18.50;99.90;;;;;;4833884;29;20092;-78
2021/07/08 05:24:37;;;;;;;3.88;1.85;;;18.60;99.90;;;;;;4833312;29;20037;-77
2021/07/08 05:27:03;;;;;;;3.63;1.83;;;18.70;99.90;;;;;;4833702;29;20361;-77
2021/07/08 05:29:30;;;;;;;3.35;1.52;;;18.70;99.90;;;;;;4835969;29;20101;-79
2021/07/08 05:31:56;;;;;;;8.07;2.28;;;18.70;99.90;;;;;;4839091;29;20061;-75
2021/07/08 05:34:24;;;;;;;4.78;1.92;;;18.60;99.90;;;;;;4834374;29;20034;-75
2021/07/08 05:36:49;;;;;;;5.03;1.80;;;18.50;99.90;;;;;;4833664;29;20025;-75
2021/07/08 05:39:15;;;;;;;4.13;1.70;;;18.60;99.90;;;;;;4832364;29;20496;-75
2021/07/08 05:41:43;;;;;;;4.93;1.85;;;18.70;99.90;;;;;;4833420;29;20121;-75
2021/07/08 05:44:09;;;;;;;7.45;2.03;;;18.70;99.90;;;;;;4833894;29;20037;-76
2021/07/08 05:46:34;;;;;;;2.88;1.73;;;18.80;99.90;;;;;;4832041;29;20082;-76
2021/07/08 05:49:00;;;;;;;7.65;1.98;;;18.80;99.90;;;;;;4835735;29;20090;-75
2021/07/08 05:51:26;;;;;;;3.60;1.70;;;18.90;99.90;;;;;;4833631;29;20112;-76
2021/07/08 05:53:53;;;;;;;4.10;1.60;;;19.10;99.90;;;;;;4829205;29;20046;-76
2021/07/08 05:56:19;;;;;;;4.90;2.10;;;19.20;99.90;;;;;;4838052;29;20029;-75
2021/07/08 05:58:45;;;;;;;3.75;1.80;;;19.40;99.90;;;;;;4841350;29;20029;-76
2021/07/08 06:01:10;;;;;;;3.72;1.70;;;19.50;99.90;;;;;;4833287;29;20040;-75
2021/07/08 06:03:36;;;;;;;6.05;1.60;;;19.60;99.90;;;;;;4833370;29;20045;-75
2021/07/08 06:06:02;;;;;;;6.47;2.03;;;19.80;99.90;;;;;;4833310;29;20041;-75
2021/07/08 06:08:27;;;;;;;4.72;1.75;;;20.00;99.90;;;;;;4832226;29;20037;-74
2021/07/08 06:10:53;;;;;;;4.68;1.80;;;20.10;99.90;;;;;;4831456;29;20050;-75
2021/07/08 06:13:19;;;;;;;4.07;1.73;;;20.20;99.90;;;;;;4830833;29;20102;-75
2021/07/08 06:15:44;;;;;;;11.93;2.80;;;20.30;99.90;;;;;;4832478;29;20030;-75
2021/07/08 06:18:12;;;;;;;4.50;1.83;;;20.40;99.90;;;;;;4833137;29;20104;-74
2021/07/08 06:20:38;;;;;;;7.75;2.20;;;20.60;99.90;;;;;;4833374;29;20105;-75
2021/07/08 06:23:04;;;;;;;9.52;3.08;;;20.60;99.90;;;;;;4833298;29;20163;-75
2021/07/08 06:25:31;;;;;;;6.03;2.00;;;20.70;99.90;;;;;;4833153;29;20030;-76
2021/07/08 06:27:57;;;;;;;5.63;2.50;;;20.70;99.90;;;;;;4833676;29;20041;-76
2021/07/08 06:30:23;;;;;;;4.25;1.98;;;20.80;99.90;;;;;;4833199;29;20026;-76
2021/07/08 06:32:49;;;;;;;3.97;2.00;;;20.80;99.90;;;;;;4832704;29;20057;-75
2021/07/08 06:35:18;;;;;;;5.40;1.83;;;20.80;99.90;;;;;;4832701;29;20109;-76
2021/07/08 06:37:47;;;;;;;6.53;1.85;;;20.90;99.90;;;;;;4833828;29;20079;-76
2021/07/08 06:40:17;;;;;;;5.32;2.15;;;21.00;99.90;;;;;;4833181;29;20056;-75
2021/07/08 06:42:44;;;;;;;5.88;2.38;;;21.10;99.90;;;;;;4832649;29;20531;-75
2021/07/08 06:45:12;;;;;;;4.55;2.45;;;21.10;99.90;;;;;;4829470;29;20064;-75
2021/07/08 06:47:43;;;;;;;3.10;1.70;;;21.10;99.90;;;;;;4833958;29;20026;-75
2021/07/08 06:50:09;;;;;;;5.97;2.00;;;21.20;99.90;;;;;;4823440;29;20050;-75
2021/07/08 06:52:35;;;;;;;3.28;1.80;;;21.00;99.90;;;;;;4829463;29;20042;-76
2021/07/08 06:55:04;;;;;;;4.25;2.00;;;21.10;99.90;;;;;;4825283;29;20652;-76
2021/07/08 06:57:30;;;;;;;7.50;2.10;;;21.10;99.90;;;;;;4829159;29;20049;-75
2021/07/08 06:59:55;;;;;;;7.00;2.65;;;21.10;99.90;;;;;;4832626;29;20045;-75
2021/07/08 07:02:21;;;;;;;5.35;2.10;;;21.20;99.90;;;;;;4831741;29;20072;-76
2021/07/08 07:04:52;;;;;;;6.30;2.33;;;21.20;99.90;;;;;;4832916;29;20034;-75
2021/07/08 07:07:18;;;;;;;5.82;1.85;;;21.20;99.90;;;;;;4826123;29;20365;-75
2021/07/08 07:09:47;;;;;;;5.82;2.03;;;21.30;99.90;;;;;;4832821;29;20038;-76
2021/07/08 07:12:14;;;;;;;4.70;2.10;;;21.40;99.90;;;;;;4835373;29;20034;-76
2021/07/08 07:14:39;;;;;;;7.85;2.13;;;21.50;99.90;;;;;;4837169;29;20500;-76
2021/07/08 07:17:08;;;;;;;6.60;2.90;;;21.50;99.90;;;;;;4835772;29;20030;-75
2021/07/08 07:19:33;;;;;;;8.88;2.17;;;21.50;99.90;;;;;;4836695;29;20091;-76
2021/07/08 07:22:01;;;;;;;5.40;2.47;;;21.40;99.90;;;;;;4836371;29;20042;-76
2021/07/08 07:24:27;;;;;;;6.68;2.33;;;21.40;99.90;;;;;;4836173;29;20127;-75
2021/07/08 07:26:53;;;;;;;6.25;2.45;;;21.50;99.90;;;;;;4836525;29;20038;-75
2021/07/08 07:29:18;;;;;;;4.60;2.30;;;21.50;99.90;;;;;;4836521;29;20915;-75
2021/07/08 07:31:44;;;;;;;5.50;2.00;;;21.60;99.90;;;;;;4835517;29;20062;-76
2021/07/08 07:34:14;;;;;;;7.45;1.88;;;21.50;99.90;;;;;;4836959;29;20033;-75
2021/07/08 07:36:40;;;;;;;4.60;2.20;;;21.40;99.90;;;;;;4836106;29;20129;-76
2021/07/08 07:39:05;;;;;;;4.32;2.15;;;21.40;99.90;;;;;;4836227;29;20034;-76
2021/07/08 07:41:34;;;;;;;8.65;2.50;;;21.30;99.90;;;;;;4836410;29;20370;-76
2021/07/08 07:44:06;;;;;;;3.90;2.47;;;21.40;99.90;;;;;;4836499;29;20445;-77
2021/07/08 07:46:33;;;;;;;8.57;2.60;;;21.40;99.90;;;;;;4829824;29;20396;-76
2021/07/08 07:48:59;;;;;;;9.70;2.13;;;21.40;99.90;;;;;;4835806;29;20026;-75
2021/07/08 07:51:25;;;;;;;3.60;2.15;;;21.40;99.90;;;;;;4836319;29;20041;-76
2021/07/08 07:53:52;;;;;;;3.90;1.98;;;21.20;99.90;;;;;;4835536;29;20108;-75
2021/07/08 07:56:18;;;;;;;3.60;1.60;;;21.20;99.90;;;;;;4835902;29;20073;-78
2021/07/08 07:58:44;;;;;;;6.72;2.55;;;21.20;99.90;;;;;;4835990;29;20452;-76
2021/07/08 08:01:10;;;;;;;6.88;1.95;;;21.20;99.90;;;;;;4836127;29;20026;-75
2021/07/08 08:03:39;;;;;;;6.07;2.13;;;21.20;99.90;;;;;;4835712;29;20076;-75
2021/07/08 08:08:51;;;;;;;11.65;2.72;;;21.40;99.90;;;;;;4835437;29;20041;-75
2021/07/08 08:11:20;;;;;;;6.38;2.58;;;21.20;99.90;;;;;;4835010;29;20433;-75
2021/07/08 08:13:46;;;;;;;7.68;2.72;;;21.10;99.90;;;;;;4834990;29;20102;-74
2021/07/08 08:16:12;;;;;;;3.85;1.83;;;21.00;99.90;;;;;;4835492;29;20029;-76
2021/07/08 08:18:40;;;;;;;7.68;2.85;;;20.90;99.90;;;;;;4836099;29;20030;-75
